sensor_id;sensor_type;location;lat;lon;timestamp;P1;durP1;ratioP1;P2;durP2;ratioP2
67514;SDS011;60646;55.802;37.032;2022-07-25T00:00:08;5.97;;;3.67;;
67514;SDS011;60646;55.802;37.032;2022-07-25T00:02:36;6.00;;;3.00;;
67514;SDS011;60646;55.802;37.032;2022-07-25T00:05:02;5.35;;;3.50;;
67514;SDS011;60646;55.802;37.032;2022-07-25T00:07:28;5.82;;;3.78;;
67514;SDS011;60646;55.802;37.032;2022-07-25T00:09:54;4.38;;;3.88;;
67514;SDS011;60646;55.802;37.032;2022-07-25T00:12:20;7.32;;;3.65;;
67514;SDS011;60646;55.802;37.032;2022-07-25T00:14:46;5.70;;;3.38;;
67514;SDS011;60646;55.802;37.032;2022-07-25T00:17:12;6.25;;;3.72;;
67514;SDS011;60646;55.802;37.032;2022-07-25T00:19:38;4.63;;;3.33;;
67514;SDS011;60646;55.802;37.032;2022-07-25T00:22:04;5.68;;;3.42;;
67514;SDS011;60646;55.802;37.032;2022-07-25T00:24:30;5.25;;;3.60;;
67514;SDS011;60646;55.802;37.032;2022-07-25T00:26:56;4.28;;;3.33;;
67514;SDS011;60646;55.802;37.032;2022-07-25T00:29:22;4.95;;;3.10;;
67514;SDS011;60646;55.802;37.032;2022-07-25T00:32:06;4.60;;;3.38;;
67514;SDS011;60646;55.802;37.032;2022-07-25T00:34:32;3.35;;;2.85;;
67514;SDS011;60646;55.802;37.032;2022-07-25T00:36:58;3.92;;;3.15;;
67514;SDS011;60646;55.802;37.032;2022-07-25T00:39:23;5.43;;;3.28;;
67514;SDS011;60646;55.802;37.032;2022-07-25T00:41:49;4.65;;;2.90;;
67514;SDS011;60646;55.802;37.032;2022-07-25T00:44:24;4.30;;;2.97;;
67514;SDS011;60646;55.802;37.032;2022-07-25T00:46:52;5.45;;;3.15;;
67514;SDS011;60646;55.802;37.032;2022-07-25T00:49:18;5.45;;;3.22;;
67514;SDS011;60646;55.802;37.032;2022-07-25T00:51:44;3.42;;;2.95;;
67514;SDS011;60646;55.802;37.032;2022-07-25T00:54:11;4.43;;;3.00;;
67514;SDS011;60646;55.802;37.032;2022-07-25T00:56:37;3.65;;;2.97;;
67514;SDS011;60646;55.802;37.032;2022-07-25T00:59:03;3.45;;;2.83;;
67514;SDS011;60646;55.802;37.032;2022-07-25T01:01:29;5.05;;;3.53;;
67514;SDS011;60646;55.802;37.032;2022-07-25T01:03:55;4.82;;;3.03;;
67514;SDS011;60646;55.802;37.032;2022-07-25T01:06:21;3.88;;;3.10;;
67514;SDS011;60646;55.802;37.032;2022-07-25T01:08:47;3.80;;;3.35;;
67514;SDS011;60646;55.802;37.032;2022-07-25T01:11:13;3.40;;;3.08;;
67514;SDS011;60646;55.802;37.032;2022-07-25T01:13:40;3.67;;;3.08;;
67514;SDS011;60646;55.802;37.032;2022-07-25T01:16:06;4.18;;;3.25;;
67514;SDS011;60646;55.802;37.032;2022-07-25T01:18:32;3.72;;;2.80;;
67514;SDS011;60646;55.802;37.032;2022-07-25T01:20:59;5.63;;;3.20;;
67514;SDS011;60646;55.802;37.032;2022-07-25T01:23:25;3.92;;;2.92;;
67514;SDS011;60646;55.802;37.032;2022-07-25T01:25:51;3.38;;;2.80;;
67514;SDS011;60646;55.802;37.032;2022-07-25T01:28:17;5.15;;;3.08;;
67514;SDS011;60646;55.802;37.032;2022-07-25T01:30:43;3.78;;;3.05;;
67514;SDS011;60646;55.802;37.032;2022-07-25T01:33:09;3.83;;;2.92;;
67514;SDS011;60646;55.802;37.032;2022-07-25T01:35:40;4.22;;;3.08;;
67514;SDS011;60646;55.802;37.032;2022-07-25T01:38:05;4.82;;;3.03;;
67514;SDS011;60646;55.802;37.032;2022-07-25T01:40:31;4.68;;;3.20;;
67514;SDS011;60646;55.802;37.032;2022-07-25T01:42:57;4.25;;;3.00;;
67514;SDS011;60646;55.802;37.032;2022-07-25T01:45:23;4.28;;;3.22;;
67514;SDS011;60646;55.802;37.032;2022-07-25T01:47:49;3.80;;;3.00;;
67514;SDS011;60646;55.802;37.032;2022-07-25T01:50:14;3.60;;;2.65;;
67514;SDS011;60646;55.802;37.032;2022-07-25T01:52:40;3.88;;;3.05;;
67514;SDS011;60646;55.802;37.032;2022-07-25T01:55:07;3.78;;;2.95;;
67514;SDS011;60646;55.802;37.032;2022-07-25T01:57:33;5.05;;;3.40;;
67514;SDS011;60646;55.802;37.032;2022-07-25T01:59:58;3.65;;;2.83;;
67514;SDS011;60646;55.802;37.032;2022-07-25T02:02:24;5.70;;;2.72;;
67514;SDS011;60646;55.802;37.032;2022-07-25T02:04:50;3.22;;;2.55;;
67514;SDS011;60646;55.802;37.032;2022-07-25T02:07:16;4.32;;;2.90;;
67514;SDS011;60646;55.802;37.032;2022-07-25T02:09:42;3.90;;;2.67;;
67514;SDS011;60646;55.802;37.032;2022-07-25T02:12:07;3.55;;;2.58;;
67514;SDS011;60646;55.802;37.032;2022-07-25T02:14:33;4.13;;;3.05;;
67514;SDS011;60646;55.802;37.032;2022-07-25T02:16:59;5.30;;;3.03;;
67514;SDS011;60646;55.802;37.032;2022-07-25T02:19:25;6.03;;;3.17;;
67514;SDS011;60646;55.802;37.032;2022-07-25T02:21:50;5.85;;;2.90;;
67514;SDS011;60646;55.802;37.032;2022-07-25T02:24:16;4.13;;;3.40;;
67514;SDS011;60646;55.802;37.032;2022-07-25T02:26:42;4.75;;;3.30;;
67514;SDS011;60646;55.802;37.032;2022-07-25T02:29:08;3.85;;;3.22;;
67514;SDS011;60646;55.802;37.032;2022-07-25T02:31:33;5.13;;;3.88;;
67514;SDS011;60646;55.802;37.032;2022-07-25T02:33:59;3.00;;;2.67;;
67514;SDS011;60646;55.802;37.032;2022-07-25T02:36:25;4.40;;;3.28;;
67514;SDS011;60646;55.802;37.032;2022-07-25T02:38:51;3.50;;;3.03;;
67514;SDS011;60646;55.802;37.032;2022-07-25T02:41:16;5.03;;;3.40;;
67514;SDS011;60646;55.802;37.032;2022-07-25T02:43:42;3.67;;;2.92;;
67514;SDS011;60646;55.802;37.032;2022-07-25T02:46:08;4.60;;;3.13;;
67514;SDS011;60646;55.802;37.032;2022-07-25T02:48:33;3.45;;;2.95;;
67514;SDS011;60646;55.802;37.032;2022-07-25T02:50:59;4.65;;;3.47;;
67514;SDS011;60646;55.802;37.032;2022-07-25T02:53:25;3.63;;;3.20;;
67514;SDS011;60646;55.802;37.032;2022-07-25T02:55:51;5.28;;;3.35;;
67514;SDS011;60646;55.802;37.032;2022-07-25T02:58:16;3.58;;;2.90;;
67514;SDS011;60646;55.802;37.032;2022-07-25T03:00:42;3.58;;;3.15;;
67514;SDS011;60646;55.802;37.032;2022-07-25T03:03:08;4.50;;;3.28;;
67514;SDS011;60646;55.802;37.032;2022-07-25T03:05:34;4.50;;;3.33;;
67514;SDS011;60646;55.802;37.032;2022-07-25T03:07:59;4.53;;;3.22;;
67514;SDS011;60646;55.802;37.032;2022-07-25T03:10:25;4.20;;;3.10;;
67514;SDS011;60646;55.802;37.032;2022-07-25T03:12:51;4.35;;;3.13;;
67514;SDS011;60646;55.802;37.032;2022-07-25T03:15:17;3.80;;;3.25;;
67514;SDS011;60646;55.802;37.032;2022-07-25T03:17:42;4.80;;;3.40;;
67514;SDS011;60646;55.802;37.032;2022-07-25T03:20:08;6.22;;;3.47;;
67514;SDS011;60646;55.802;37.032;2022-07-25T03:22:35;4.90;;;3.45;;
67514;SDS011;60646;55.802;37.032;2022-07-25T03:25:19;5.30;;;3.65;;
67514;SDS011;60646;55.802;37.032;2022-07-25T03:27:45;3.75;;;3.15;;
67514;SDS011;60646;55.802;37.032;2022-07-25T03:30:11;3.30;;;3.00;;
67514;SDS011;60646;55.802;37.032;2022-07-25T03:32:37;4.50;;;3.25;;
67514;SDS011;60646;55.802;37.032;2022-07-25T03:35:03;4.70;;;3.45;;
67514;SDS011;60646;55.802;37.032;2022-07-25T03:37:47;4.30;;;2.88;;
67514;SDS011;60646;55.802;37.032;2022-07-25T03:40:13;4.57;;;3.28;;
67514;SDS011;60646;55.802;37.032;2022-07-25T03:42:39;4.13;;;3.40;;
67514;SDS011;60646;55.802;37.032;2022-07-25T03:45:05;4.60;;;3.15;;
67514;SDS011;60646;55.802;37.032;2022-07-25T03:47:31;4.05;;;3.65;;
67514;SDS011;60646;55.802;37.032;2022-07-25T03:49:57;4.07;;;3.38;;
67514;SDS011;60646;55.802;37.032;2022-07-25T03:52:23;4.82;;;3.08;;
67514;SDS011;60646;55.802;37.032;2022-07-25T03:54:48;5.20;;;3.15;;
67514;SDS011;60646;55.802;37.032;2022-07-25T03:57:14;4.55;;;3.45;;
67514;SDS011;60646;55.802;37.032;2022-07-25T03:59:40;3.88;;;2.95;;
67514;SDS011;60646;55.802;37.032;2022-07-25T04:02:06;5.10;;;3.63;;
67514;SDS011;60646;55.802;37.032;2022-07-25T04:04:50;3.60;;;3.15;;
67514;SDS011;60646;55.802;37.032;2022-07-25T04:07:16;4.15;;;3.45;;
67514;SDS011;60646;55.802;37.032;2022-07-25T04:09:43;4.68;;;3.17;;
67514;SDS011;60646;55.802;37.032;2022-07-25T04:12:09;4.82;;;3.63;;
67514;SDS011;60646;55.802;37.032;2022-07-25T04:14:35;3.92;;;2.92;;
67514;SDS011;60646;55.802;37.032;2022-07-25T04:17:01;3.83;;;3.38;;
67514;SDS011;60646;55.802;37.032;2022-07-25T04:19:26;5.10;;;3.42;;
67514;SDS011;60646;55.802;37.032;2022-07-25T04:21:52;4.25;;;3.30;;
67514;SDS011;60646;55.802;37.032;2022-07-25T04:24:18;4.47;;;3.35;;
67514;SDS011;60646;55.802;37.032;2022-07-25T04:26:44;3.75;;;3.30;;
67514;SDS011;60646;55.802;37.032;2022-07-25T04:29:09;4.53;;;3.40;;
67514;SDS011;60646;55.802;37.032;2022-07-25T04:31:35;4.80;;;3.85;;
67514;SDS011;60646;55.802;37.032;2022-07-25T04:34:01;3.88;;;3.08;;
67514;SDS011;60646;55.802;37.032;2022-07-25T04:36:26;4.32;;;3.63;;
67514;SDS011;60646;55.802;37.032;2022-07-25T04:38:52;5.45;;;3.38;;
67514;SDS011;60646;55.802;37.032;2022-07-25T04:41:18;4.28;;;3.45;;
67514;SDS011;60646;55.802;37.032;2022-07-25T04:43:43;5.38;;;3.63;;
67514;SDS011;60646;55.802;37.032;2022-07-25T04:46:09;5.22;;;3.50;;
67514;SDS011;60646;55.802;37.032;2022-07-25T04:48:35;5.20;;;3.47;;
67514;SDS011;60646;55.802;37.032;2022-07-25T04:51:00;3.80;;;3.33;;
67514;SDS011;60646;55.802;37.032;2022-07-25T04:53:26;4.13;;;3.05;;
67514;SDS011;60646;55.802;37.032;2022-07-25T04:55:52;4.18;;;3.45;;
67514;SDS011;60646;55.802;37.032;2022-07-25T04:58:18;4.18;;;3.63;;
67514;SDS011;60646;55.802;37.032;2022-07-25T05:00:44;4.45;;;3.35;;
67514;SDS011;60646;55.802;37.032;2022-07-25T05:03:10;4.88;;;3.70;;
67514;SDS011;60646;55.802;37.032;2022-07-25T05:05:36;4.07;;;3.53;;
67514;SDS011;60646;55.802;37.032;2022-07-25T05:08:02;6.43;;;3.40;;
67514;SDS011;60646;55.802;37.032;2022-07-25T05:10:28;5.45;;;3.28;;
67514;SDS011;60646;55.802;37.032;2022-07-25T05:12:54;3.45;;;2.78;;
67514;SDS011;60646;55.802;37.032;2022-07-25T05:15:21;4.78;;;3.85;;
67514;SDS011;60646;55.802;37.032;2022-07-25T05:17:47;4.43;;;3.70;;
67514;SDS011;60646;55.802;37.032;2022-07-25T05:20:13;4.70;;;3.53;;
67514;SDS011;60646;55.802;37.032;2022-07-25T05:22:39;4.88;;;3.85;;
67514;SDS011;60646;55.802;37.032;2022-07-25T05:25:05;4.10;;;3.38;;
67514;SDS011;60646;55.802;37.032;2022-07-25T05:27:35;6.18;;;3.50;;
67514;SDS011;60646;55.802;37.032;2022-07-25T05:30:01;4.97;;;3.35;;
67514;SDS011;60646;55.802;37.032;2022-07-25T05:32:32;3.72;;;3.28;;
67514;SDS011;60646;55.802;37.032;2022-07-25T05:34:58;4.13;;;3.20;;
67514;SDS011;60646;55.802;37.032;2022-07-25T05:37:24;3.67;;;3.17;;
67514;SDS011;60646;55.802;37.032;2022-07-25T05:39:50;4.40;;;3.38;;
67514;SDS011;60646;55.802;37.032;2022-07-25T05:45:06;4.00;;;3.40;;
67514;SDS011;60646;55.802;37.032;2022-07-25T05:47:32;4.43;;;3.33;;
67514;SDS011;60646;55.802;37.032;2022-07-25T05:49:58;4.47;;;3.47;;
67514;SDS011;60646;55.802;37.032;2022-07-25T05:52:24;6.43;;;3.67;;
67514;SDS011;60646;55.802;37.032;2022-07-25T05:54:49;4.38;;;3.35;;
67514;SDS011;60646;55.802;37.032;2022-07-25T05:57:15;5.10;;;3.40;;
67514;SDS011;60646;55.802;37.032;2022-07-25T05:59:59;3.17;;;2.88;;
67514;SDS011;60646;55.802;37.032;2022-07-25T06:02:25;4.00;;;3.33;;
67514;SDS011;60646;55.802;37.032;2022-07-25T06:04:51;5.20;;;3.55;;
67514;SDS011;60646;55.802;37.032;2022-07-25T06:07:17;4.38;;;3.60;;
67514;SDS011;60646;55.802;37.032;2022-07-25T06:09:42;4.15;;;3.47;;
67514;SDS011;60646;55.802;37.032;2022-07-25T06:12:08;4.63;;;3.55;;
67514;SDS011;60646;55.802;37.032;2022-07-25T06:14:34;3.65;;;2.70;;
67514;SDS011;60646;55.802;37.032;2022-07-25T06:16:59;5.30;;;3.05;;
67514;SDS011;60646;55.802;37.032;2022-07-25T06:19:25;4.63;;;3.63;;
67514;SDS011;60646;55.802;37.032;2022-07-25T06:21:51;3.42;;;2.97;;
67514;SDS011;60646;55.802;37.032;2022-07-25T06:24:16;3.65;;;2.97;;
67514;SDS011;60646;55.802;37.032;2022-07-25T06:26:42;4.45;;;3.20;;
67514;SDS011;60646;55.802;37.032;2022-07-25T06:29:08;3.47;;;3.08;;
67514;SDS011;60646;55.802;37.032;2022-07-25T06:31:34;3.00;;;2.75;;
67514;SDS011;60646;55.802;37.032;2022-07-25T06:34:18;3.28;;;2.97;;
67514;SDS011;60646;55.802;37.032;2022-07-25T06:36:44;3.47;;;3.17;;
67514;SDS011;60646;55.802;37.032;2022-07-25T06:39:09;3.65;;;3.22;;
67514;SDS011;60646;55.802;37.032;2022-07-25T06:41:35;2.80;;;2.60;;
67514;SDS011;60646;55.802;37.032;2022-07-25T06:44:02;3.92;;;3.35;;
67514;SDS011;60646;55.802;37.032;2022-07-25T06:46:28;3.28;;;2.97;;
67514;SDS011;60646;55.802;37.032;2022-07-25T06:48:57;3.80;;;3.40;;
67514;SDS011;60646;55.802;37.032;2022-07-25T06:51:23;6.95;;;3.75;;
67514;SDS011;60646;55.802;37.032;2022-07-25T06:53:49;3.05;;;2.72;;
67514;SDS011;60646;55.802;37.032;2022-07-25T06:56:15;4.13;;;2.78;;
67514;SDS011;60646;55.802;37.032;2022-07-25T06:58:41;3.33;;;2.80;;
67514;SDS011;60646;55.802;37.032;2022-07-25T07:01:07;3.08;;;2.10;;
67514;SDS011;60646;55.802;37.032;2022-07-25T07:03:33;2.67;;;2.47;;
67514;SDS011;60646;55.802;37.032;2022-07-25T07:06:03;3.15;;;2.78;;
67514;SDS011;60646;55.802;37.032;2022-07-25T07:08:30;5.75;;;3.17;;
67514;SDS011;60646;55.802;37.032;2022-07-25T07:10:56;4.47;;;3.25;;
67514;SDS011;60646;55.802;37.032;2022-07-25T07:13:28;6.63;;;3.58;;
67514;SDS011;60646;55.802;37.032;2022-07-25T07:15:54;8.07;;;5.60;;
67514;SDS011;60646;55.802;37.032;2022-07-25T07:18:20;7.03;;;4.10;;
67514;SDS011;60646;55.802;37.032;2022-07-25T07:20:46;6.32;;;4.47;;
67514;SDS011;60646;55.802;37.032;2022-07-25T07:23:12;4.95;;;3.50;;
67514;SDS011;60646;55.802;37.032;2022-07-25T07:25:38;3.25;;;2.70;;
67514;SDS011;60646;55.802;37.032;2022-07-25T07:28:04;5.00;;;3.03;;
67514;SDS011;60646;55.802;37.032;2022-07-25T07:30:31;3.05;;;2.70;;
67514;SDS011;60646;55.802;37.032;2022-07-25T07:32:57;3.53;;;2.83;;
67514;SDS011;60646;55.802;37.032;2022-07-25T07:35:22;2.78;;;2.40;;
67514;SDS011;60646;55.802;37.032;2022-07-25T07:37:49;3.40;;;2.70;;
67514;SDS011;60646;55.802;37.032;2022-07-25T07:40:16;2.40;;;2.20;;
67514;SDS011;60646;55.802;37.032;2022-07-25T07:42:46;2.50;;;2.30;;
67514;SDS011;60646;55.802;37.032;2022-07-25T07:45:21;2.40;;;2.20;;
67514;SDS011;60646;55.802;37.032;2022-07-25T07:47:49;2.55;;;2.33;;
67514;SDS011;60646;55.802;37.032;2022-07-25T07:50:17;2.50;;;2.20;;
67514;SDS011;60646;55.802;37.032;2022-07-25T07:52:46;2.50;;;2.22;;
67514;SDS011;60646;55.802;37.032;2022-07-25T07:55:12;2.33;;;2.13;;
67514;SDS011;60646;55.802;37.032;2022-07-25T07:57:57;3.72;;;2.08;;
67514;SDS011;60646;55.802;37.032;2022-07-25T08:00:23;2.25;;;2.00;;
67514;SDS011;60646;55.802;37.032;2022-07-25T08:02:52;2.20;;;1.90;;
67514;SDS011;60646;55.802;37.032;2022-07-25T08:05:39;2.42;;;1.63;;
67514;SDS011;60646;55.802;37.032;2022-07-25T08:08:08;5.03;;;2.00;;
67514;SDS011;60646;55.802;37.032;2022-07-25T08:13:25;1.90;;;1.77;;
67514;SDS011;60646;55.802;37.032;2022-07-25T08:15:55;2.92;;;1.90;;
67514;SDS011;60646;55.802;37.032;2022-07-25T08:18:40;3.28;;;2.00;;
67514;SDS011;60646;55.802;37.032;2022-07-25T08:21:06;2.20;;;2.00;;
67514;SDS011;60646;55.802;37.032;2022-07-25T08:23:32;2.30;;;2.10;;
67514;SDS011;60646;55.802;37.032;2022-07-25T08:26:03;2.45;;;2.08;;
67514;SDS011;60646;55.802;37.032;2022-07-25T08:28:30;2.58;;;2.38;;
67514;SDS011;60646;55.802;37.032;2022-07-25T08:30:56;3.08;;;2.42;;
67514;SDS011;60646;55.802;37.032;2022-07-25T08:33:23;2.30;;;2.00;;
67514;SDS011;60646;55.802;37.032;2022-07-25T08:35:53;2.60;;;2.20;;
67514;SDS011;60646;55.802;37.032;2022-07-25T08:38:20;2.28;;;1.88;;
67514;SDS011;60646;55.802;37.032;2022-07-25T08:40:48;2.25;;;1.98;;
67514;SDS011;60646;55.802;37.032;2022-07-25T08:43:15;2.70;;;1.85;;
67514;SDS011;60646;55.802;37.032;2022-07-25T08:45:48;3.15;;;2.28;;
67514;SDS011;60646;55.802;37.032;2022-07-25T08:48:25;5.97;;;1.85;;
67514;SDS011;60646;55.802;37.032;2022-07-25T08:50:52;3.38;;;1.92;;
67514;SDS011;60646;55.802;37.032;2022-07-25T08:53:21;4.20;;;3.00;;
67514;SDS011;60646;55.802;37.032;2022-07-25T08:55:57;2.97;;;2.13;;
67514;SDS011;60646;55.802;37.032;2022-07-25T08:58:23;3.33;;;2.17;;
67514;SDS011;60646;55.802;37.032;2022-07-25T09:00:49;2.50;;;2.20;;
67514;SDS011;60646;55.802;37.032;2022-07-25T09:03:15;6.47;;;3.25;;
67514;SDS011;60646;55.802;37.032;2022-07-25T09:05:41;2.55;;;2.13;;
67514;SDS011;60646;55.802;37.032;2022-07-25T09:10:34;2.80;;;1.73;;
67514;SDS011;60646;55.802;37.032;2022-07-25T09:13:08;1.83;;;1.60;;
67514;SDS011;60646;55.802;37.032;2022-07-25T09:15:59;2.53;;;1.88;;
67514;SDS011;60646;55.802;37.032;2022-07-25T09:18:25;1.73;;;1.60;;
67514;SDS011;60646;55.802;37.032;2022-07-25T09:28:48;2.72;;;2.20;;
67514;SDS011;60646;55.802;37.032;2022-07-25T09:31:16;2.35;;;2.03;;
67514;SDS011;60646;55.802;37.032;2022-07-25T09:33:44;2.70;;;1.67;;
67514;SDS011;60646;55.802;37.032;2022-07-25T09:36:12;1.90;;;1.70;;
67514;SDS011;60646;55.802;37.032;2022-07-25T09:38:38;2.97;;;2.13;;
67514;SDS011;60646;55.802;37.032;2022-07-25T09:41:03;2.28;;;2.03;;
67514;SDS011;60646;55.802;37.032;2022-07-25T09:46:05;1.73;;;1.58;;
67514;SDS011;60646;55.802;37.032;2022-07-25T09:48:32;1.90;;;1.55;;
67514;SDS011;60646;55.802;37.032;2022-07-25T09:50:59;1.92;;;1.50;;
67514;SDS011;60646;55.802;37.032;2022-07-25T09:53:25;1.65;;;1.55;;
67514;SDS011;60646;55.802;37.032;2022-07-25T09:55:51;1.85;;;1.10;;
67514;SDS011;60646;55.802;37.032;2022-07-25T09:58:19;1.98;;;1.50;;
67514;SDS011;60646;55.802;37.032;2022-07-25T10:00:45;1.58;;;1.40;;
67514;SDS011;60646;55.802;37.032;2022-07-25T10:03:19;1.90;;;1.60;;
67514;SDS011;60646;55.802;37.032;2022-07-25T10:06:02;1.90;;;1.75;;
67514;SDS011;60646;55.802;37.032;2022-07-25T10:08:39;1.60;;;1.48;;
67514;SDS011;60646;55.802;37.032;2022-07-25T10:11:16;4.68;;;1.90;;
67514;SDS011;60646;55.802;37.032;2022-07-25T10:13:50;7.05;;;1.88;;
67514;SDS011;60646;55.802;37.032;2022-07-25T10:16:20;2.15;;;1.75;;
67514;SDS011;60646;55.802;37.032;2022-07-25T10:18:51;2.58;;;1.95;;
67514;SDS011;60646;55.802;37.032;2022-07-25T10:21:19;2.33;;;1.85;;
67514;SDS011;60646;55.802;37.032;2022-07-25T10:23:55;1.85;;;1.75;;
67514;SDS011;60646;55.802;37.032;2022-07-25T10:28:53;1.90;;;1.55;;
67514;SDS011;60646;55.802;37.032;2022-07-25T10:31:21;2.13;;;1.80;;
67514;SDS011;60646;55.802;37.032;2022-07-25T10:33:54;2.83;;;1.40;;
67514;SDS011;60646;55.802;37.032;2022-07-25T10:36:38;1.77;;;1.42;;
67514;SDS011;60646;55.802;37.032;2022-07-25T10:39:07;1.63;;;1.50;;
67514;SDS011;60646;55.802;37.032;2022-07-25T10:41:38;1.55;;;1.45;;
67514;SDS011;60646;55.802;37.032;2022-07-25T10:44:12;2.90;;;1.63;;
67514;SDS011;60646;55.802;37.032;2022-07-25T10:46:39;1.80;;;1.70;;
67514;SDS011;60646;55.802;37.032;2022-07-25T10:49:14;1.90;;;1.65;;
67514;SDS011;60646;55.802;37.032;2022-07-25T10:52:18;2.03;;;1.67;;
67514;SDS011;60646;55.802;37.032;2022-07-25T10:54:51;1.58;;;1.25;;
67514;SDS011;60646;55.802;37.032;2022-07-25T10:57:18;1.92;;;1.40;;
67514;SDS011;60646;55.802;37.032;2022-07-25T10:59:44;1.83;;;1.40;;
67514;SDS011;60646;55.802;37.032;2022-07-25T11:02:11;2.65;;;1.38;;
67514;SDS011;60646;55.802;37.032;2022-07-25T11:04:44;2.13;;;1.77;;
67514;SDS011;60646;55.802;37.032;2022-07-25T11:07:22;2.50;;;1.90;;
67514;SDS011;60646;55.802;37.032;2022-07-25T11:09:56;2.25;;;1.88;;
67514;SDS011;60646;55.802;37.032;2022-07-25T11:12:24;2.03;;;1.60;;
67514;SDS011;60646;55.802;37.032;2022-07-25T11:14:50;3.30;;;1.55;;
67514;SDS011;60646;55.802;37.032;2022-07-25T11:17:20;3.72;;;1.98;;
67514;SDS011;60646;55.802;37.032;2022-07-25T11:22:23;1.65;;;1.52;;
67514;SDS011;60646;55.802;37.032;2022-07-25T11:24:49;2.20;;;1.30;;
67514;SDS011;60646;55.802;37.032;2022-07-25T11:27:20;1.58;;;1.30;;
67514;SDS011;60646;55.802;37.032;2022-07-25T11:29:48;4.28;;;1.50;;
67514;SDS011;60646;55.802;37.032;2022-07-25T11:32:14;2.15;;;1.67;;
67514;SDS011;60646;55.802;37.032;2022-07-25T11:34:43;1.50;;;1.40;;
67514;SDS011;60646;55.802;37.032;2022-07-25T11:37:12;1.70;;;1.27;;
67514;SDS011;60646;55.802;37.032;2022-07-25T11:39:40;1.45;;;1.20;;
67514;SDS011;60646;55.802;37.032;2022-07-25T11:42:08;4.00;;;3.00;;
67514;SDS011;60646;55.802;37.032;2022-07-25T11:44:52;4.57;;;2.17;;
67514;SDS011;60646;55.802;37.032;2022-07-25T11:47:31;2.95;;;1.73;;
67514;SDS011;60646;55.802;37.032;2022-07-25T11:50:02;2.17;;;1.60;;
67514;SDS011;60646;55.802;37.032;2022-07-25T11:52:34;1.90;;;1.40;;
67514;SDS011;60646;55.802;37.032;2022-07-25T11:55:02;1.83;;;1.63;;
67514;SDS011;60646;55.802;37.032;2022-07-25T11:57:34;2.05;;;1.30;;
67514;SDS011;60646;55.802;37.032;2022-07-25T12:00:04;2.22;;;1.40;;
67514;SDS011;60646;55.802;37.032;2022-07-25T12:02:34;1.40;;;1.30;;
67514;SDS011;60646;55.802;37.032;2022-07-25T12:05:06;1.38;;;1.27;;
67514;SDS011;60646;55.802;37.032;2022-07-25T12:07:42;1.60;;;1.40;;
67514;SDS011;60646;55.802;37.032;2022-07-25T12:10:14;1.80;;;1.50;;
67514;SDS011;60646;55.802;37.032;2022-07-25T12:15:35;2.03;;;1.48;;
67514;SDS011;60646;55.802;37.032;2022-07-25T12:18:03;2.25;;;1.50;;
67514;SDS011;60646;55.802;37.032;2022-07-25T12:20:34;1.55;;;1.45;;
67514;SDS011;60646;55.802;37.032;2022-07-25T12:23:04;1.52;;;1.30;;
67514;SDS011;60646;55.802;37.032;2022-07-25T12:25:34;1.70;;;1.60;;
67514;SDS011;60646;55.802;37.032;2022-07-25T12:28:02;3.17;;;1.65;;
67514;SDS011;60646;55.802;37.032;2022-07-25T12:30:47;1.70;;;1.60;;
67514;SDS011;60646;55.802;37.032;2022-07-25T12:33:14;2.45;;;1.40;;
67514;SDS011;60646;55.802;37.032;2022-07-25T12:35:41;2.42;;;2.08;;
67514;SDS011;60646;55.802;37.032;2022-07-25T12:38:08;2.40;;;1.83;;
67514;SDS011;60646;55.802;37.032;2022-07-25T12:40:35;3.30;;;1.60;;
67514;SDS011;60646;55.802;37.032;2022-07-25T12:43:02;2.85;;;2.08;;
67514;SDS011;60646;55.802;37.032;2022-07-25T12:45:29;1.85;;;1.65;;
67514;SDS011;60646;55.802;37.032;2022-07-25T12:47:55;1.90;;;1.70;;
67514;SDS011;60646;55.802;37.032;2022-07-25T12:50:21;2.28;;;1.70;;
67514;SDS011;60646;55.802;37.032;2022-07-25T12:52:50;2.10;;;1.90;;
67514;SDS011;60646;55.802;37.032;2022-07-25T12:55:16;1.70;;;1.60;;
67514;SDS011;60646;55.802;37.032;2022-07-25T12:57:44;2.00;;;1.70;;
67514;SDS011;60646;55.802;37.032;2022-07-25T13:00:11;1.90;;;1.70;;
67514;SDS011;60646;55.802;37.032;2022-07-25T13:02:39;2.10;;;1.80;;
67514;SDS011;60646;55.802;37.032;2022-07-25T13:05:05;3.03;;;1.77;;
67514;SDS011;60646;55.802;37.032;2022-07-25T13:07:31;2.15;;;1.50;;
67514;SDS011;60646;55.802;37.032;2022-07-25T13:09:58;1.88;;;1.50;;
67514;SDS011;60646;55.802;37.032;2022-07-25T13:12:24;1.65;;;1.38;;
67514;SDS011;60646;55.802;37.032;2022-07-25T13:14:50;1.60;;;1.50;;
67514;SDS011;60646;55.802;37.032;2022-07-25T13:17:16;2.00;;;1.50;;
67514;SDS011;60646;55.802;37.032;2022-07-25T13:19:42;1.98;;;1.40;;
67514;SDS011;60646;55.802;37.032;2022-07-25T13:22:07;1.63;;;1.52;;
67514;SDS011;60646;55.802;37.032;2022-07-25T13:24:33;1.42;;;1.30;;
67514;SDS011;60646;55.802;37.032;2022-07-25T13:27:08;2.13;;;1.65;;
67514;SDS011;60646;55.802;37.032;2022-07-25T13:29:34;4.28;;;1.80;;
67514;SDS011;60646;55.802;37.032;2022-07-25T13:32:00;2.42;;;1.60;;
67514;SDS011;60646;55.802;37.032;2022-07-25T13:34:26;2.83;;;1.38;;
67514;SDS011;60646;55.802;37.032;2022-07-25T13:36:52;1.38;;;1.27;;
67514;SDS011;60646;55.802;37.032;2022-07-25T13:39:18;2.65;;;1.60;;
67514;SDS011;60646;55.802;37.032;2022-07-25T13:41:46;2.30;;;1.67;;
67514;SDS011;60646;55.802;37.032;2022-07-25T13:44:13;1.67;;;1.50;;
67514;SDS011;60646;55.802;37.032;2022-07-25T13:46:39;3.10;;;1.75;;
67514;SDS011;60646;55.802;37.032;2022-07-25T13:49:06;1.55;;;1.27;;
67514;SDS011;60646;55.802;37.032;2022-07-25T13:51:31;2.38;;;1.58;;
67514;SDS011;60646;55.802;37.032;2022-07-25T13:53:57;1.48;;;1.30;;
67514;SDS011;60646;55.802;37.032;2022-07-25T13:56:23;2.35;;;1.70;;
67514;SDS011;60646;55.802;37.032;2022-07-25T13:58:49;7.25;;;2.63;;
67514;SDS011;60646;55.802;37.032;2022-07-25T14:01:14;4.43;;;3.42;;
67514;SDS011;60646;55.802;37.032;2022-07-25T14:03:40;4.45;;;3.33;;
67514;SDS011;60646;55.802;37.032;2022-07-25T14:06:07;3.53;;;2.90;;
67514;SDS011;60646;55.802;37.032;2022-07-25T14:08:34;4.18;;;2.83;;
67514;SDS011;60646;55.802;37.032;2022-07-25T14:11:00;8.32;;;6.03;;
67514;SDS011;60646;55.802;37.032;2022-07-25T14:13:26;8.70;;;6.40;;
67514;SDS011;60646;55.802;37.032;2022-07-25T14:15:51;6.30;;;5.18;;
67514;SDS011;60646;55.802;37.032;2022-07-25T14:18:17;4.65;;;3.40;;
67514;SDS011;60646;55.802;37.032;2022-07-25T14:21:01;2.83;;;2.10;;
67514;SDS011;60646;55.802;37.032;2022-07-25T14:23:27;4.57;;;2.63;;
67514;SDS011;60646;55.802;37.032;2022-07-25T14:25:53;3.92;;;2.63;;
67514;SDS011;60646;55.802;37.032;2022-07-25T14:28:18;4.32;;;2.33;;
67514;SDS011;60646;55.802;37.032;2022-07-25T14:30:44;3.00;;;2.20;;
67514;SDS011;60646;55.802;37.032;2022-07-25T14:33:10;3.80;;;2.00;;
67514;SDS011;60646;55.802;37.032;2022-07-25T14:35:35;2.30;;;1.75;;
67514;SDS011;60646;55.802;37.032;2022-07-25T14:38:02;1.90;;;1.70;;
67514;SDS011;60646;55.802;37.032;2022-07-25T14:40:29;4.35;;;1.85;;
67514;SDS011;60646;55.802;37.032;2022-07-25T14:46:20;2.47;;;1.48;;
67514;SDS011;60646;55.802;37.032;2022-07-25T14:48:45;10.35;;;2.25;;
67514;SDS011;60646;55.802;37.032;2022-07-25T14:51:11;2.42;;;1.75;;
67514;SDS011;60646;55.802;37.032;2022-07-25T14:53:37;2.10;;;1.70;;
67514;SDS011;60646;55.802;37.032;2022-07-25T14:56:03;1.65;;;1.55;;
67514;SDS011;60646;55.802;37.032;2022-07-25T14:58:30;2.00;;;1.80;;
67514;SDS011;60646;55.802;37.032;2022-07-25T15:00:56;1.92;;;1.73;;
67514;SDS011;60646;55.802;37.032;2022-07-25T15:03:21;1.92;;;1.60;;
67514;SDS011;60646;55.802;37.032;2022-07-25T15:05:47;2.33;;;1.80;;